createdAt,value
2019-05-26T00:00:56.876Z,4.13
2019-05-26T00:03:26.433Z,4.67
2019-05-26T00:05:55.891Z,4.50
2019-05-26T00:08:25.383Z,4.17
2019-05-26T00:10:54.813Z,4.50
2019-05-26T00:13:24.504Z,5.33
2019-05-26T00:15:53.940Z,5.23
2019-05-26T00:18:23.472Z,5.17
2019-05-26T00:20:52.916Z,4.57
2019-05-26T00:23:22.448Z,4.73
2019-05-26T00:25:51.920Z,4.87
2019-05-26T00:28:21.397Z,4.97
2019-05-26T00:30:50.904Z,4.50
2019-05-26T00:33:20.464Z,4.50
2019-05-26T00:35:49.931Z,5.03
2019-05-26T00:38:19.378Z,4.60
2019-05-26T00:40:49.265Z,4.50
2019-05-26T00:43:18.783Z,4.37
2019-05-26T00:45:48.296Z,4.57
2019-05-26T00:48:17.760Z,4.87
2019-05-26T00:50:50.192Z,4.63
2019-05-26T00:53:19.818Z,5.37
2019-05-26T00:55:49.360Z,4.70
2019-05-26T00:58:18.827Z,5.40
2019-05-26T01:00:48.289Z,4.93
2019-05-26T01:03:17.910Z,4.60
2019-05-26T01:05:47.504Z,4.87
2019-05-26T01:08:16.987Z,5.13
2019-05-26T01:10:46.814Z,4.50
2019-05-26T01:13:16.309Z,4.57
2019-05-26T01:15:45.897Z,4.70
2019-05-26T01:18:15.367Z,4.73
2019-05-26T01:20:44.909Z,5.00
2019-05-26T01:23:14.581Z,5.37
2019-05-26T01:25:44.463Z,4.93
2019-05-26T01:28:14.005Z,4.60
2019-05-26T01:30:43.498Z,5.10
2019-05-26T01:33:12.962Z,5.07
2019-05-26T01:35:42.958Z,5.27
2019-05-26T01:38:23.811Z,4.50
2019-05-26T01:40:45.957Z,4.87
2019-05-26T01:43:15.433Z,4.77
2019-05-26T01:45:45.684Z,5.07
2019-05-26T01:48:15.172Z,4.57
2019-05-26T01:50:45.722Z,4.70
2019-05-26T01:53:15.253Z,4.70
2019-05-26T01:55:44.798Z,4.33
2019-05-26T01:58:14.284Z,4.67
2019-05-26T02:00:43.822Z,4.37
2019-05-26T02:03:13.314Z,4.73
2019-05-26T02:05:42.823Z,4.83
2019-05-26T02:08:12.559Z,4.53
2019-05-26T02:10:42.339Z,4.27
2019-05-26T02:13:11.890Z,4.40
2019-05-26T02:15:41.492Z,4.30
2019-05-26T02:18:11.194Z,4.73
2019-05-26T02:20:40.708Z,4.63
2019-05-26T02:23:10.178Z,5.00
2019-05-26T02:25:39.748Z,4.47
2019-05-26T02:28:09.277Z,4.30
2019-05-26T02:30:38.821Z,4.80
2019-05-26T02:33:08.261Z,4.33
2019-05-26T02:35:37.722Z,4.73
2019-05-26T02:38:07.417Z,4.70
2019-05-26T02:40:37.093Z,4.77
2019-05-26T02:43:06.610Z,4.23
2019-05-26T02:45:36.367Z,4.60
2019-05-26T02:48:06.012Z,4.97
2019-05-26T02:50:35.669Z,5.13
2019-05-26T02:53:05.302Z,5.07
2019-05-26T02:55:34.797Z,4.67
2019-05-26T02:58:04.404Z,4.67
2019-05-26T03:00:41.881Z,4.60
2019-05-26T03:03:12.632Z,5.00
2019-05-26T03:05:43.986Z,4.90
2019-05-26T03:08:15.310Z,4.83
2019-05-26T03:10:45.846Z,4.57
2019-05-26T03:13:17.181Z,4.60
2019-05-26T03:15:47.981Z,5.03
2019-05-26T03:18:18.154Z,4.50
2019-05-26T03:20:48.528Z,4.83
2019-05-26T03:23:18.420Z,5.07
2019-05-26T03:25:48.212Z,4.67
2019-05-26T03:28:17.798Z,4.67
2019-05-26T03:30:47.659Z,4.97
2019-05-26T03:33:17.408Z,4.50
2019-05-26T03:35:47.000Z,4.33
2019-05-26T03:38:16.710Z,5.20
2019-05-26T03:40:46.158Z,4.67
2019-05-26T03:43:15.870Z,5.00
2019-05-26T03:46:17.503Z,4.30
2019-05-26T03:48:47.626Z,4.20
2019-05-26T03:51:17.360Z,4.60
2019-05-26T03:53:47.093Z,4.40
2019-05-26T03:56:16.789Z,4.73
2019-05-26T03:58:46.733Z,4.90
2019-05-26T04:01:16.598Z,4.80
2019-05-26T04:03:46.289Z,4.70
2019-05-26T04:06:15.969Z,5.03
2019-05-26T04:08:45.530Z,5.17
2019-05-26T04:11:15.174Z,5.30
2019-05-26T04:13:44.729Z,5.07
2019-05-26T04:16:14.260Z,5.20
2019-05-26T04:18:43.794Z,5.20
2019-05-26T04:21:13.398Z,4.83
2019-05-26T04:23:42.939Z,5.70
2019-05-26T04:26:12.605Z,4.90
2019-05-26T04:28:42.126Z,5.37
2019-05-26T04:31:11.709Z,5.43
2019-05-26T04:33:41.298Z,5.63
2019-05-26T04:36:10.901Z,5.33
2019-05-26T04:38:40.433Z,5.50
2019-05-26T04:41:09.987Z,5.60
2019-05-26T04:43:39.536Z,5.23
2019-05-26T04:46:09.281Z,5.57
2019-05-26T04:48:39.048Z,5.30
2019-05-26T04:51:08.790Z,5.30
2019-05-26T04:53:38.311Z,5.70
2019-05-26T04:56:07.783Z,5.00
2019-05-26T04:58:37.295Z,5.37
2019-05-26T05:01:06.900Z,5.17
2019-05-26T05:03:36.362Z,5.63
2019-05-26T05:06:05.832Z,5.87
2019-05-26T05:08:35.380Z,5.90
2019-05-26T05:11:05.001Z,5.50
2019-05-26T05:13:34.456Z,5.50
2019-05-26T05:16:04.169Z,6.27
2019-05-26T05:18:33.640Z,5.53
2019-05-26T05:21:03.095Z,5.80
2019-05-26T05:23:32.704Z,5.70
2019-05-26T05:26:02.163Z,5.57
2019-05-26T05:28:31.708Z,5.93
2019-05-26T05:31:01.412Z,6.50
2019-05-26T05:33:30.900Z,5.77
2019-05-26T05:36:00.344Z,6.20
2019-05-26T05:38:29.820Z,6.40
2019-05-26T05:41:00.373Z,6.63
2019-05-26T05:43:30.058Z,6.03
2019-05-26T05:45:59.522Z,6.70
2019-05-26T05:48:28.981Z,6.37
2019-05-26T05:50:58.525Z,6.47
2019-05-26T05:53:28.065Z,6.57
2019-05-26T05:55:57.536Z,6.90
2019-05-26T05:58:26.971Z,6.17
2019-05-26T06:00:56.465Z,6.30
2019-05-26T06:03:25.915Z,6.33
2019-05-26T06:05:55.393Z,6.67
2019-05-26T06:08:24.878Z,6.40
2019-05-26T06:10:54.433Z,6.20
2019-05-26T06:13:23.955Z,6.57
2019-05-26T06:15:53.461Z,7.40
2019-05-26T06:18:22.920Z,7.70
2019-05-26T06:20:52.511Z,7.60
2019-05-26T06:23:22.001Z,7.87
2019-05-26T06:25:51.501Z,7.10
2019-05-26T06:28:21.041Z,7.00
2019-05-26T06:30:50.627Z,8.67
2019-05-26T06:33:20.121Z,6.80
2019-05-26T06:35:49.694Z,7.07
2019-05-26T06:38:19.585Z,6.10
2019-05-26T06:40:49.298Z,5.83
2019-05-26T06:43:19.920Z,5.83
2019-05-26T06:45:49.416Z,5.73
2019-05-26T06:48:19.036Z,6.03
2019-05-26T06:50:48.852Z,5.70
2019-05-26T06:53:18.304Z,5.43
2019-05-26T06:55:47.988Z,4.30
2019-05-26T06:58:17.591Z,4.70
2019-05-26T07:00:47.158Z,4.77
2019-05-26T07:03:23.779Z,4.07
2019-05-26T07:05:56.868Z,4.47
2019-05-26T07:08:26.378Z,3.90
2019-05-26T07:10:55.896Z,4.20
2019-05-26T07:13:25.422Z,4.10
2019-05-26T07:15:54.936Z,3.73
2019-05-26T07:18:24.544Z,3.43
2019-05-26T07:20:54.052Z,3.47
2019-05-26T07:23:23.583Z,3.27
2019-05-26T07:25:53.152Z,3.63
2019-05-26T07:28:22.758Z,3.20
2019-05-26T07:30:52.317Z,3.23
2019-05-26T07:33:21.805Z,3.30
2019-05-26T07:35:51.408Z,3.23
2019-05-26T07:38:20.897Z,3.50
2019-05-26T07:40:50.403Z,3.33
2019-05-26T07:43:19.856Z,3.33
2019-05-26T07:45:49.325Z,3.07
2019-05-26T07:48:18.883Z,3.00
2019-05-26T07:50:48.615Z,2.70
2019-05-26T07:53:18.147Z,2.67
2019-05-26T07:55:47.833Z,2.87
2019-05-26T07:58:17.506Z,3.00
2019-05-26T08:00:47.167Z,2.70
2019-05-26T08:03:16.640Z,2.70
2019-05-26T08:05:46.201Z,2.30
2019-05-26T08:08:15.668Z,2.47
2019-05-26T08:10:45.224Z,2.17
2019-05-26T08:13:14.922Z,2.40
2019-05-26T08:15:44.712Z,2.20
2019-05-26T08:18:14.182Z,2.40
2019-05-26T08:20:43.928Z,2.30
2019-05-26T08:23:13.440Z,3.00
2019-05-26T08:25:43.026Z,2.43
2019-05-26T08:28:12.720Z,2.20
2019-05-26T08:30:42.181Z,2.50
2019-05-26T08:33:11.783Z,2.50
2019-05-26T08:35:41.373Z,2.43
2019-05-26T08:38:10.881Z,2.80
2019-05-26T08:40:40.371Z,2.37
2019-05-26T08:43:09.974Z,2.60
2019-05-26T08:45:39.585Z,2.20
2019-05-26T08:48:09.206Z,1.97
2019-05-26T08:50:38.674Z,2.03
2019-05-26T08:53:08.148Z,2.20
2019-05-26T08:55:37.719Z,2.30
2019-05-26T08:58:07.290Z,2.27
2019-05-26T09:00:36.937Z,2.50
2019-05-26T09:03:06.499Z,2.23
2019-05-26T09:05:36.058Z,2.60
2019-05-26T09:08:08.179Z,2.27
2019-05-26T09:10:38.663Z,2.40
2019-05-26T09:13:08.157Z,2.50
2019-05-26T09:15:37.809Z,2.60
2019-05-26T09:18:07.320Z,2.20
2019-05-26T09:20:36.833Z,2.37
2019-05-26T09:23:07.851Z,2.30
2019-05-26T09:25:37.351Z,2.60
2019-05-26T09:28:06.935Z,2.50
2019-05-26T09:30:36.507Z,3.57
2019-05-26T09:33:06.093Z,2.03
2019-05-26T09:35:35.724Z,2.53
2019-05-26T09:38:05.669Z,2.47
2019-05-26T09:40:35.134Z,2.57
2019-05-26T09:43:15.600Z,2.40
2019-05-26T09:45:36.059Z,2.13
2019-05-26T09:48:05.795Z,2.80
2019-05-26T09:50:35.333Z,2.70
2019-05-26T09:53:04.845Z,2.13
2019-05-26T09:55:34.490Z,2.40
2019-05-26T09:58:10.176Z,2.47
2019-05-26T10:00:49.274Z,1.97
2019-05-26T10:03:35.475Z,2.70
2019-05-26T10:06:05.281Z,2.27
2019-05-26T10:08:34.928Z,2.73
2019-05-26T10:11:04.703Z,2.03
2019-05-26T10:13:34.268Z,2.40
2019-05-26T10:16:08.189Z,1.87
2019-05-26T10:18:37.825Z,2.23
2019-05-26T10:21:07.304Z,2.00
2019-05-26T10:23:36.918Z,1.97
2019-05-26T10:26:06.515Z,2.30
2019-05-26T10:28:36.137Z,2.63
2019-05-26T10:31:05.700Z,2.33
2019-05-26T10:33:35.293Z,2.20
2019-05-26T10:36:04.945Z,2.40
2019-05-26T10:38:34.558Z,2.90
2019-05-26T10:41:04.277Z,2.40
2019-05-26T10:43:46.256Z,3.00
2019-05-26T10:46:05.201Z,2.90
2019-05-26T10:48:34.801Z,2.90
2019-05-26T10:51:06.865Z,2.70
2019-05-26T10:53:35.566Z,2.80
2019-05-26T10:56:05.177Z,3.27
2019-05-26T10:58:34.848Z,3.00
2019-05-26T11:01:04.777Z,2.83
2019-05-26T11:03:34.300Z,3.57
2019-05-26T11:06:04.224Z,3.10
2019-05-26T11:08:33.763Z,3.03
2019-05-26T11:11:03.274Z,2.93
2019-05-26T11:13:32.782Z,2.90
2019-05-26T11:16:02.261Z,3.40
2019-05-26T11:18:31.900Z,3.13
2019-05-26T11:21:01.370Z,3.50
2019-05-26T11:23:31.045Z,3.07
2019-05-26T11:26:00.636Z,3.37
2019-05-26T11:28:30.220Z,3.20
2019-05-26T11:30:59.864Z,2.73
2019-05-26T11:33:29.630Z,3.00
2019-05-26T11:35:59.144Z,3.47
2019-05-26T11:38:28.588Z,3.10
2019-05-26T11:40:58.800Z,3.00
2019-05-26T11:43:29.171Z,3.23
2019-05-26T11:45:58.708Z,2.63
2019-05-26T11:48:28.328Z,3.00
2019-05-26T11:50:57.860Z,2.63
2019-05-26T11:53:27.481Z,3.23
2019-05-26T11:55:57.037Z,2.70
2019-05-26T11:58:26.698Z,2.63
2019-05-26T12:00:56.167Z,2.80
2019-05-26T12:03:25.957Z,2.40
2019-05-26T12:05:55.566Z,2.30
2019-05-26T12:08:25.127Z,2.93
2019-05-26T12:11:11.299Z,2.53
2019-05-26T12:13:51.041Z,2.43
2019-05-26T12:16:23.465Z,2.50
2019-05-26T12:18:53.003Z,2.93
2019-05-26T12:21:26.152Z,3.17
2019-05-26T12:27:19.052Z,3.10
2019-05-26T12:29:48.781Z,2.87
2019-05-26T12:32:18.282Z,2.87
2019-05-26T12:34:48.535Z,2.80
2019-05-26T12:37:19.253Z,2.80
2019-05-26T12:39:48.773Z,2.90
2019-05-26T12:42:18.349Z,2.80
2019-05-26T12:44:49.835Z,3.67
2019-05-26T12:47:19.751Z,2.93
2019-05-26T12:49:49.354Z,2.70
2019-05-26T12:52:19.233Z,2.60
2019-05-26T12:54:48.958Z,2.97
2019-05-26T12:57:18.583Z,3.60
2019-05-26T13:00:04.242Z,3.30
2019-05-26T13:02:33.755Z,3.10
2019-05-26T13:05:03.467Z,2.67
2019-05-26T13:07:33.103Z,2.90
2019-05-26T13:10:02.685Z,2.77
2019-05-26T13:12:32.254Z,2.80
2019-05-26T13:15:06.068Z,3.00
2019-05-26T13:17:33.012Z,2.90
2019-05-26T13:20:02.504Z,2.80
2019-05-26T13:22:32.066Z,2.67
2019-05-26T13:25:01.655Z,3.20
2019-05-26T13:27:31.456Z,2.80
2019-05-26T13:30:01.078Z,2.80
2019-05-26T13:32:30.592Z,2.60
2019-05-26T13:35:00.285Z,3.17
2019-05-26T13:37:29.832Z,2.70
2019-05-26T13:40:00.919Z,2.80
2019-05-26T13:42:30.473Z,2.73
2019-05-26T13:44:59.962Z,2.70
2019-05-26T13:47:30.507Z,3.13
2019-05-26T13:50:00.156Z,2.60
2019-05-26T13:52:29.641Z,2.60
2019-05-26T13:54:59.217Z,2.63
2019-05-26T13:57:28.923Z,2.50
2019-05-26T13:59:58.445Z,2.93
2019-05-26T14:02:28.303Z,3.13
2019-05-26T14:04:57.843Z,2.90
2019-05-26T14:07:27.376Z,2.70
2019-05-26T14:09:57.137Z,2.50
2019-05-26T14:12:28.014Z,2.53
2019-05-26T14:14:57.636Z,2.60
2019-05-26T14:17:28.628Z,2.40
2019-05-26T14:20:01.296Z,2.60
2019-05-26T14:22:30.917Z,2.60
2019-05-26T14:25:01.338Z,2.50
2019-05-26T14:27:31.011Z,2.40
2019-05-26T14:30:00.563Z,2.70
2019-05-26T14:32:30.127Z,2.20
2019-05-26T14:34:59.592Z,2.30
2019-05-26T14:37:29.147Z,2.47
2019-05-26T14:39:58.920Z,2.03
2019-05-26T14:42:28.398Z,2.07
2019-05-26T14:44:57.880Z,2.30
2019-05-26T14:47:27.345Z,2.17
2019-05-26T14:49:56.808Z,2.20
2019-05-26T14:52:26.294Z,2.43
2019-05-26T14:54:55.848Z,1.93
2019-05-26T14:57:25.320Z,2.20
2019-05-26T14:59:54.828Z,2.20
2019-05-26T15:02:24.440Z,2.53
2019-05-26T15:04:54.080Z,2.30
2019-05-26T15:07:23.756Z,2.20
2019-05-26T15:09:53.370Z,1.90
2019-05-26T15:12:22.939Z,2.30
2019-05-26T15:14:52.461Z,2.00
2019-05-26T15:17:22.055Z,2.00
2019-05-26T15:19:51.683Z,2.10
2019-05-26T15:22:21.238Z,2.07
2019-05-26T15:24:50.799Z,1.97
2019-05-26T15:27:20.297Z,2.07
2019-05-26T15:29:49.853Z,2.13
2019-05-26T15:32:19.349Z,1.87
2019-05-26T15:34:48.967Z,1.70
2019-05-26T15:37:18.457Z,2.03
2019-05-26T15:39:47.910Z,2.00
2019-05-26T15:42:17.408Z,2.50
2019-05-26T15:44:46.883Z,2.23
2019-05-26T15:47:16.390Z,2.13
2019-05-26T15:49:45.985Z,2.10
2019-05-26T15:52:15.523Z,1.77
2019-05-26T15:54:45.087Z,2.00
2019-05-26T15:57:14.650Z,1.73
2019-05-26T15:59:44.112Z,2.00
2019-05-26T16:02:14.878Z,2.00
2019-05-26T16:04:45.635Z,2.40
2019-05-26T16:07:15.337Z,1.93
2019-05-26T16:09:44.900Z,1.73
2019-05-26T16:12:14.548Z,1.90
2019-05-26T16:14:44.036Z,2.00
2019-05-26T16:17:13.594Z,2.10
2019-05-26T16:19:43.343Z,1.97
2019-05-26T16:22:12.810Z,2.23
2019-05-26T16:24:42.698Z,2.20
2019-05-26T16:27:19.032Z,2.20
2019-05-26T16:29:46.477Z,2.10
2019-05-26T16:32:18.470Z,2.03
2019-05-26T16:34:46.221Z,2.13
2019-05-26T16:37:15.700Z,1.70
2019-05-26T16:39:46.157Z,1.80
2019-05-26T16:42:15.652Z,2.10
2019-05-26T16:44:45.221Z,2.20
2019-05-26T16:47:14.768Z,1.97
2019-05-26T16:49:44.325Z,1.80
2019-05-26T16:52:13.805Z,2.00
2019-05-26T16:54:43.348Z,2.30
2019-05-26T16:57:12.854Z,2.07
2019-05-26T16:59:42.601Z,2.10
2019-05-26T17:02:12.069Z,2.07
2019-05-26T17:04:41.677Z,2.00
2019-05-26T17:07:11.333Z,2.43
2019-05-26T17:09:41.145Z,2.80
2019-05-26T17:12:10.693Z,1.87
2019-05-26T17:14:40.215Z,2.07
2019-05-26T17:17:14.708Z,2.33
2019-05-26T17:19:41.077Z,1.80
2019-05-26T17:22:10.705Z,2.40
2019-05-26T17:24:40.243Z,2.00
2019-05-26T17:27:09.722Z,2.03
2019-05-26T17:29:39.223Z,1.80
2019-05-26T17:32:08.695Z,1.93
2019-05-26T17:34:38.189Z,1.90
2019-05-26T17:37:07.743Z,1.90
2019-05-26T17:39:37.264Z,1.80
2019-05-26T17:42:06.968Z,1.70
2019-05-26T17:44:36.608Z,1.60
2019-05-26T17:47:06.094Z,1.80
2019-05-26T17:49:35.695Z,1.80
2019-05-26T17:52:05.406Z,1.90
2019-05-26T17:54:35.002Z,1.93
2019-05-26T17:57:04.703Z,1.80
2019-05-26T17:59:34.373Z,1.90
2019-05-26T18:02:03.992Z,2.23
2019-05-26T18:04:33.497Z,1.87
2019-05-26T18:07:03.186Z,2.00
2019-05-26T18:09:43.572Z,1.90
2019-05-26T18:12:03.893Z,1.90
2019-05-26T18:14:33.373Z,1.80
2019-05-26T18:17:02.940Z,1.60
2019-05-26T18:19:32.475Z,1.67
2019-05-26T18:22:01.942Z,2.00
2019-05-26T18:24:31.428Z,1.73
2019-05-26T18:27:00.980Z,2.00
2019-05-26T18:29:30.608Z,1.90
2019-05-26T18:32:00.494Z,2.07
2019-05-26T18:34:30.191Z,2.20
2019-05-26T18:36:59.873Z,2.47
2019-05-26T18:39:29.309Z,2.00
2019-05-26T18:41:58.848Z,2.20
2019-05-26T18:44:28.407Z,2.20
2019-05-26T18:46:58.085Z,2.10
2019-05-26T18:49:27.557Z,2.37
2019-05-26T18:51:57.079Z,2.17
2019-05-26T18:54:26.555Z,1.90
2019-05-26T18:56:56.153Z,1.90
2019-05-26T18:59:25.617Z,1.70
2019-05-26T19:01:55.592Z,1.80
2019-05-26T19:04:25.068Z,1.97
2019-05-26T19:06:55.020Z,2.20
2019-05-26T19:09:36.927Z,2.13
2019-05-26T19:12:06.650Z,1.90
2019-05-26T19:14:36.369Z,1.70
2019-05-26T19:17:06.209Z,2.23
2019-05-26T19:19:35.790Z,1.80
2019-05-26T19:22:05.532Z,1.90
2019-05-26T19:24:35.294Z,1.77
2019-05-26T19:27:05.072Z,1.93
2019-05-26T19:29:34.552Z,1.80
2019-05-26T19:32:04.476Z,2.10
2019-05-26T19:34:33.937Z,2.00
2019-05-26T19:37:03.481Z,1.87
2019-05-26T19:39:33.132Z,1.87
2019-05-26T19:42:02.695Z,1.80
2019-05-26T19:44:32.160Z,1.80
2019-05-26T19:47:01.862Z,1.80
2019-05-26T19:49:31.421Z,2.03
2019-05-26T19:52:00.965Z,2.03
2019-05-26T19:54:30.650Z,2.50
2019-05-26T19:57:00.144Z,1.87
2019-05-26T19:59:29.666Z,2.10
2019-05-26T20:02:14.909Z,2.07
2019-05-26T20:04:30.469Z,1.97
2019-05-26T20:07:00.081Z,2.20
2019-05-26T20:09:29.632Z,2.40
2019-05-26T20:11:59.129Z,2.30
2019-05-26T20:14:28.640Z,2.00
2019-05-26T20:16:58.292Z,2.00
2019-05-26T20:19:27.753Z,2.07
2019-05-26T20:21:57.227Z,2.13
2019-05-26T20:24:25.900Z,2.23
2019-05-26T20:26:55.388Z,2.13
2019-05-26T20:29:24.945Z,1.90
2019-05-26T20:31:55.140Z,2.37
2019-05-26T20:34:24.735Z,2.17
2019-05-26T20:36:54.233Z,2.10
2019-05-26T20:39:23.733Z,2.43
2019-05-26T20:41:53.309Z,2.40
2019-05-26T20:44:22.795Z,2.57
2019-05-26T20:46:52.291Z,2.37
2019-05-26T20:49:21.991Z,2.30
2019-05-26T20:51:51.644Z,2.20
2019-05-26T20:54:21.130Z,2.17
2019-05-26T20:56:50.679Z,2.60
2019-05-26T20:59:20.289Z,2.17
2019-05-26T21:01:49.760Z,2.40
2019-05-26T21:04:19.252Z,2.60
2019-05-26T21:06:48.732Z,2.00
2019-05-26T21:09:18.267Z,3.70
2019-05-26T21:11:47.785Z,2.97
2019-05-26T21:14:17.376Z,2.40
2019-05-26T21:16:46.984Z,2.20
2019-05-26T21:19:16.542Z,2.50
2019-05-26T21:21:46.175Z,2.40
2019-05-26T21:24:15.747Z,2.40
2019-05-26T21:26:45.321Z,2.17
2019-05-26T21:29:14.800Z,2.40
2019-05-26T21:31:44.373Z,2.10
2019-05-26T21:34:14.048Z,2.37
2019-05-26T21:36:43.777Z,2.40
2019-05-26T21:39:13.594Z,2.40
2019-05-26T21:41:43.366Z,2.50
2019-05-26T21:44:13.015Z,2.40
2019-05-26T21:46:42.934Z,2.97
2019-05-26T21:49:12.594Z,2.57
2019-05-26T21:51:42.527Z,2.30
2019-05-26T21:54:12.047Z,2.40
2019-05-26T21:56:41.584Z,2.50
2019-05-26T21:59:11.073Z,2.60
2019-05-26T22:01:40.983Z,2.50
2019-05-26T22:04:11.110Z,2.87
2019-05-26T22:06:43.778Z,3.00
2019-05-26T22:09:13.267Z,2.33
2019-05-26T22:11:44.117Z,2.57
2019-05-26T22:14:13.559Z,2.77
2019-05-26T22:16:43.260Z,2.40
2019-05-26T22:19:12.731Z,2.60
2019-05-26T22:21:42.230Z,2.57
2019-05-26T22:24:11.709Z,2.70
2019-05-26T22:26:41.347Z,2.63
2019-05-26T22:29:10.831Z,2.57
2019-05-26T22:31:40.395Z,2.87
2019-05-26T22:34:09.821Z,2.73
2019-05-26T22:36:39.440Z,2.53
2019-05-26T22:39:08.998Z,2.70
2019-05-26T22:41:38.541Z,3.10
2019-05-26T22:44:11.071Z,2.87
2019-05-26T22:46:40.534Z,2.93
2019-05-26T22:49:10.068Z,3.20
2019-05-26T22:51:39.544Z,2.83
2019-05-26T22:54:09.168Z,2.73
2019-05-26T22:56:38.739Z,3.00
2019-05-26T22:59:08.283Z,3.03
2019-05-26T23:01:37.908Z,3.20
2019-05-26T23:04:07.451Z,2.87
2019-05-26T23:06:36.986Z,3.13
2019-05-26T23:09:06.980Z,3.33
2019-05-26T23:11:36.441Z,2.97
2019-05-26T23:14:06.082Z,3.10
2019-05-26T23:16:35.721Z,3.13
2019-05-26T23:19:18.272Z,3.20
2019-05-26T23:21:36.408Z,3.47
2019-05-26T23:24:05.977Z,3.03
2019-05-26T23:26:35.578Z,3.43
2019-05-26T23:29:05.232Z,3.30
2019-05-26T23:31:34.721Z,3.17
2019-05-26T23:34:04.367Z,3.03
2019-05-26T23:36:33.922Z,3.00
2019-05-26T23:39:04.301Z,3.10
2019-05-26T23:41:33.915Z,3.10
2019-05-26T23:44:03.527Z,3.10
2019-05-26T23:46:32.994Z,3.03
2019-05-26T23:49:02.562Z,2.80
2019-05-26T23:51:32.183Z,2.80
2019-05-26T23:54:01.688Z,3.20
2019-05-26T23:56:31.221Z,3.40
2019-05-26T23:59:00.697Z,3.30
